sensor_id;sensor_type;location;lat;lon;timestamp;P1;durP1;ratioP1;P2;durP2;ratioP2
19255;SDS011;9762;52.490;13.410;2022-08-01T00:00:11;5.80;;;3.10;;
19255;SDS011;9762;52.490;13.410;2022-08-01T00:02:37;4.00;;;3.10;;
19255;SDS011;9762;52.490;13.410;2022-08-01T00:05:03;6.40;;;2.70;;
19255;SDS011;9762;52.490;13.410;2022-08-01T00:07:35;3.00;;;2.80;;
19255;SDS011;9762;52.490;13.410;2022-08-01T00:10:05;2.97;;;2.77;;
19255;SDS011;9762;52.490;13.410;2022-08-01T00:12:33;3.10;;;2.90;;
19255;SDS011;9762;52.490;13.410;2022-08-01T00:14:59;2.90;;;2.80;;
19255;SDS011;9762;52.490;13.410;2022-08-01T00:17:24;3.47;;;2.50;;
19255;SDS011;9762;52.490;13.410;2022-08-01T00:19:50;5.50;;;3.13;;
19255;SDS011;9762;52.490;13.410;2022-08-01T00:22:16;3.20;;;2.80;;
19255;SDS011;9762;52.490;13.410;2022-08-01T00:24:42;3.10;;;2.90;;
19255;SDS011;9762;52.490;13.410;2022-08-01T00:27:07;3.33;;;3.20;;
19255;SDS011;9762;52.490;13.410;2022-08-01T00:29:33;4.17;;;2.87;;
19255;SDS011;9762;52.490;13.410;2022-08-01T00:31:58;2.93;;;2.83;;
19255;SDS011;9762;52.490;13.410;2022-08-01T00:34:24;3.97;;;3.03;;
19255;SDS011;9762;52.490;13.410;2022-08-01T00:36:49;4.43;;;2.93;;
19255;SDS011;9762;52.490;13.410;2022-08-01T00:39:15;3.00;;;2.90;;
19255;SDS011;9762;52.490;13.410;2022-08-01T00:41:40;4.70;;;3.00;;
19255;SDS011;9762;52.490;13.410;2022-08-01T00:44:06;3.60;;;3.40;;
19255;SDS011;9762;52.490;13.410;2022-08-01T00:46:32;3.30;;;3.03;;
19255;SDS011;9762;52.490;13.410;2022-08-01T00:48:58;4.60;;;3.00;;
19255;SDS011;9762;52.490;13.410;2022-08-01T00:51:24;3.50;;;3.20;;
19255;SDS011;9762;52.490;13.410;2022-08-01T00:53:51;5.70;;;3.00;;
19255;SDS011;9762;52.490;13.410;2022-08-01T00:56:18;3.90;;;3.10;;
19255;SDS011;9762;52.490;13.410;2022-08-01T00:58:45;3.20;;;3.00;;
19255;SDS011;9762;52.490;13.410;2022-08-01T01:01:10;3.43;;;3.13;;
19255;SDS011;9762;52.490;13.410;2022-08-01T01:03:36;3.80;;;3.50;;
19255;SDS011;9762;52.490;13.410;2022-08-01T01:06:08;3.53;;;3.27;;
19255;SDS011;9762;52.490;13.410;2022-08-01T01:08:39;3.13;;;2.93;;
19255;SDS011;9762;52.490;13.410;2022-08-01T01:11:16;3.33;;;3.03;;
19255;SDS011;9762;52.490;13.410;2022-08-01T01:13:52;3.10;;;3.00;;
19255;SDS011;9762;52.490;13.410;2022-08-01T01:16:22;3.40;;;3.10;;
19255;SDS011;9762;52.490;13.410;2022-08-01T01:18:51;4.70;;;3.00;;
19255;SDS011;9762;52.490;13.410;2022-08-01T01:29:35;6.83;;;3.00;;
19255;SDS011;9762;52.490;13.410;2022-08-01T01:32:07;3.00;;;2.90;;
19255;SDS011;9762;52.490;13.410;2022-08-01T01:34:40;6.23;;;3.33;;
19255;SDS011;9762;52.490;13.410;2022-08-01T01:37:17;6.70;;;3.40;;
19255;SDS011;9762;52.490;13.410;2022-08-01T01:39:46;3.77;;;3.20;;
19255;SDS011;9762;52.490;13.410;2022-08-01T01:42:14;3.47;;;3.37;;
19255;SDS011;9762;52.490;13.410;2022-08-01T01:44:42;3.67;;;2.93;;
19255;SDS011;9762;52.490;13.410;2022-08-01T01:47:10;3.47;;;3.17;;
19255;SDS011;9762;52.490;13.410;2022-08-01T01:49:38;4.93;;;3.30;;
19255;SDS011;9762;52.490;13.410;2022-08-01T01:52:04;3.40;;;3.20;;
19255;SDS011;9762;52.490;13.410;2022-08-01T01:54:33;5.13;;;3.30;;
19255;SDS011;9762;52.490;13.410;2022-08-01T01:57:02;3.63;;;3.30;;
19255;SDS011;9762;52.490;13.410;2022-08-01T01:59:30;3.50;;;3.20;;
19255;SDS011;9762;52.490;13.410;2022-08-01T02:01:59;3.40;;;3.17;;
19255;SDS011;9762;52.490;13.410;2022-08-01T02:04:28;5.63;;;3.20;;
19255;SDS011;9762;52.490;13.410;2022-08-01T02:06:55;3.50;;;3.30;;
19255;SDS011;9762;52.490;13.410;2022-08-01T02:09:22;3.43;;;3.17;;
19255;SDS011;9762;52.490;13.410;2022-08-01T02:11:51;4.73;;;3.10;;
19255;SDS011;9762;52.490;13.410;2022-08-01T02:14:18;3.50;;;3.20;;
19255;SDS011;9762;52.490;13.410;2022-08-01T02:16:47;4.27;;;3.87;;
19255;SDS011;9762;52.490;13.410;2022-08-01T02:19:14;3.97;;;3.27;;
19255;SDS011;9762;52.490;13.410;2022-08-01T02:24:36;6.17;;;3.37;;
19255;SDS011;9762;52.490;13.410;2022-08-01T02:27:12;3.97;;;3.60;;
19255;SDS011;9762;52.490;13.410;2022-08-01T02:29:47;3.87;;;3.57;;
19255;SDS011;9762;52.490;13.410;2022-08-01T02:32:23;3.70;;;3.20;;
19255;SDS011;9762;52.490;13.410;2022-08-01T02:34:52;4.30;;;3.37;;
19255;SDS011;9762;52.490;13.410;2022-08-01T02:37:20;3.27;;;3.17;;
19255;SDS011;9762;52.490;13.410;2022-08-01T02:39:50;3.73;;;3.47;;
19255;SDS011;9762;52.490;13.410;2022-08-01T02:42:17;3.50;;;3.20;;
19255;SDS011;9762;52.490;13.410;2022-08-01T02:44:43;4.00;;;3.57;;
19255;SDS011;9762;52.490;13.410;2022-08-01T02:47:11;3.23;;;3.03;;
19255;SDS011;9762;52.490;13.410;2022-08-01T02:49:42;3.83;;;3.67;;
19255;SDS011;9762;52.490;13.410;2022-08-01T02:52:10;5.17;;;2.97;;
19255;SDS011;9762;52.490;13.410;2022-08-01T02:54:38;8.47;;;3.80;;
19255;SDS011;9762;52.490;13.410;2022-08-01T02:57:05;3.87;;;3.37;;
19255;SDS011;9762;52.490;13.410;2022-08-01T02:59:32;3.87;;;3.60;;
19255;SDS011;9762;52.490;13.410;2022-08-01T03:02:02;3.63;;;3.40;;
19255;SDS011;9762;52.490;13.410;2022-08-01T03:04:29;6.93;;;3.73;;
19255;SDS011;9762;52.490;13.410;2022-08-01T03:06:57;3.80;;;3.50;;
19255;SDS011;9762;52.490;13.410;2022-08-01T03:09:25;3.90;;;3.20;;
19255;SDS011;9762;52.490;13.410;2022-08-01T03:11:52;3.80;;;3.60;;
19255;SDS011;9762;52.490;13.410;2022-08-01T03:14:20;3.43;;;3.23;;
19255;SDS011;9762;52.490;13.410;2022-08-01T03:16:48;3.60;;;3.40;;
19255;SDS011;9762;52.490;13.410;2022-08-01T03:19:16;4.20;;;3.30;;
19255;SDS011;9762;52.490;13.410;2022-08-01T03:21:43;4.03;;;3.70;;
19255;SDS011;9762;52.490;13.410;2022-08-01T03:24:10;4.07;;;3.77;;
19255;SDS011;9762;52.490;13.410;2022-08-01T03:26:38;4.03;;;3.43;;
19255;SDS011;9762;52.490;13.410;2022-08-01T03:29:06;3.87;;;3.50;;
19255;SDS011;9762;52.490;13.410;2022-08-01T03:31:36;4.27;;;3.97;;
19255;SDS011;9762;52.490;13.410;2022-08-01T03:34:07;3.90;;;3.70;;
19255;SDS011;9762;52.490;13.410;2022-08-01T03:36:33;4.80;;;3.90;;
19255;SDS011;9762;52.490;13.410;2022-08-01T03:39:05;4.27;;;3.93;;
19255;SDS011;9762;52.490;13.410;2022-08-01T03:41:37;3.90;;;3.60;;
19255;SDS011;9762;52.490;13.410;2022-08-01T03:44:10;3.80;;;3.50;;
19255;SDS011;9762;52.490;13.410;2022-08-01T03:46:45;3.73;;;3.47;;
19255;SDS011;9762;52.490;13.410;2022-08-01T03:49:23;4.20;;;3.97;;
19255;SDS011;9762;52.490;13.410;2022-08-01T03:51:58;3.47;;;3.37;;
19255;SDS011;9762;52.490;13.410;2022-08-01T03:54:28;3.53;;;3.40;;
19255;SDS011;9762;52.490;13.410;2022-08-01T03:56:58;3.67;;;3.47;;
19255;SDS011;9762;52.490;13.410;2022-08-01T03:59:25;3.97;;;3.60;;
19255;SDS011;9762;52.490;13.410;2022-08-01T04:01:52;4.80;;;3.70;;
19255;SDS011;9762;52.490;13.410;2022-08-01T04:04:18;3.80;;;3.53;;
19255;SDS011;9762;52.490;13.410;2022-08-01T04:06:44;4.93;;;4.53;;
19255;SDS011;9762;52.490;13.410;2022-08-01T04:09:10;4.77;;;4.40;;
19255;SDS011;9762;52.490;13.410;2022-08-01T04:11:37;4.93;;;4.50;;
19255;SDS011;9762;52.490;13.410;2022-08-01T04:14:03;5.80;;;5.07;;
19255;SDS011;9762;52.490;13.410;2022-08-01T04:16:29;4.70;;;4.30;;
19255;SDS011;9762;52.490;13.410;2022-08-01T04:18:54;5.63;;;5.13;;
19255;SDS011;9762;52.490;13.410;2022-08-01T04:21:21;8.63;;;6.53;;
19255;SDS011;9762;52.490;13.410;2022-08-01T04:23:49;12.30;;;7.27;;
19255;SDS011;9762;52.490;13.410;2022-08-01T04:26:18;7.13;;;6.43;;
19255;SDS011;9762;52.490;13.410;2022-08-01T04:28:44;8.33;;;6.50;;
19255;SDS011;9762;52.490;13.410;2022-08-01T04:31:11;7.37;;;6.77;;
19255;SDS011;9762;52.490;13.410;2022-08-01T04:33:41;7.47;;;6.77;;
19255;SDS011;9762;52.490;13.410;2022-08-01T04:36:11;7.97;;;7.13;;
19255;SDS011;9762;52.490;13.410;2022-08-01T04:38:39;7.03;;;6.33;;
19255;SDS011;9762;52.490;13.410;2022-08-01T04:41:07;6.23;;;5.73;;
19255;SDS011;9762;52.490;13.410;2022-08-01T04:43:36;6.53;;;5.93;;
19255;SDS011;9762;52.490;13.410;2022-08-01T04:46:02;6.03;;;5.53;;
19255;SDS011;9762;52.490;13.410;2022-08-01T04:48:31;6.60;;;6.00;;
19255;SDS011;9762;52.490;13.410;2022-08-01T04:50:58;7.10;;;6.50;;
19255;SDS011;9762;52.490;13.410;2022-08-01T04:53:24;7.17;;;6.60;;
19255;SDS011;9762;52.490;13.410;2022-08-01T04:55:50;7.83;;;7.13;;
19255;SDS011;9762;52.490;13.410;2022-08-01T04:58:16;7.40;;;6.70;;
19255;SDS011;9762;52.490;13.410;2022-08-01T05:00:42;8.00;;;7.30;;
19255;SDS011;9762;52.490;13.410;2022-08-01T05:03:07;7.87;;;7.10;;
19255;SDS011;9762;52.490;13.410;2022-08-01T05:05:33;7.33;;;6.83;;
19255;SDS011;9762;52.490;13.410;2022-08-01T05:08:00;7.90;;;7.23;;
19255;SDS011;9762;52.490;13.410;2022-08-01T05:10:26;8.73;;;7.93;;
19255;SDS011;9762;52.490;13.410;2022-08-01T05:12:52;8.63;;;7.77;;
19255;SDS011;9762;52.490;13.410;2022-08-01T05:15:17;8.63;;;7.93;;
19255;SDS011;9762;52.490;13.410;2022-08-01T05:17:43;7.37;;;6.77;;
19255;SDS011;9762;52.490;13.410;2022-08-01T05:20:09;9.27;;;7.40;;
19255;SDS011;9762;52.490;13.410;2022-08-01T05:22:36;6.83;;;6.37;;
19255;SDS011;9762;52.490;13.410;2022-08-01T05:25:02;8.20;;;7.40;;
19255;SDS011;9762;52.490;13.410;2022-08-01T05:27:29;8.00;;;7.30;;
19255;SDS011;9762;52.490;13.410;2022-08-01T05:29:55;6.87;;;6.37;;
19255;SDS011;9762;52.490;13.410;2022-08-01T05:32:21;7.03;;;6.63;;
19255;SDS011;9762;52.490;13.410;2022-08-01T05:34:46;9.23;;;5.90;;
19255;SDS011;9762;52.490;13.410;2022-08-01T05:37:12;6.67;;;6.07;;
19255;SDS011;9762;52.490;13.410;2022-08-01T05:39:37;6.37;;;5.77;;
19255;SDS011;9762;52.490;13.410;2022-08-01T05:42:03;6.80;;;6.30;;
19255;SDS011;9762;52.490;13.410;2022-08-01T05:44:29;6.70;;;6.10;;
19255;SDS011;9762;52.490;13.410;2022-08-01T05:46:54;6.17;;;5.43;;
19255;SDS011;9762;52.490;13.410;2022-08-01T05:49:20;6.00;;;5.60;;
19255;SDS011;9762;52.490;13.410;2022-08-01T05:51:45;5.90;;;5.40;;
19255;SDS011;9762;52.490;13.410;2022-08-01T05:54:11;6.43;;;6.03;;
19255;SDS011;9762;52.490;13.410;2022-08-01T05:56:36;5.83;;;5.53;;
19255;SDS011;9762;52.490;13.410;2022-08-01T05:59:02;5.33;;;4.83;;
19255;SDS011;9762;52.490;13.410;2022-08-01T06:01:28;6.10;;;5.40;;
19255;SDS011;9762;52.490;13.410;2022-08-01T06:03:53;9.47;;;5.37;;
19255;SDS011;9762;52.490;13.410;2022-08-01T06:06:19;5.33;;;4.90;;
19255;SDS011;9762;52.490;13.410;2022-08-01T06:08:46;5.60;;;5.20;;
19255;SDS011;9762;52.490;13.410;2022-08-01T06:11:12;4.80;;;4.50;;
19255;SDS011;9762;52.490;13.410;2022-08-01T06:13:37;6.00;;;5.40;;
19255;SDS011;9762;52.490;13.410;2022-08-01T06:16:03;5.47;;;5.13;;
19255;SDS011;9762;52.490;13.410;2022-08-01T06:18:29;5.77;;;5.30;;
19255;SDS011;9762;52.490;13.410;2022-08-01T06:20:54;5.27;;;5.03;;
19255;SDS011;9762;52.490;13.410;2022-08-01T06:23:20;6.10;;;5.67;;
19255;SDS011;9762;52.490;13.410;2022-08-01T06:25:46;8.73;;;6.60;;
19255;SDS011;9762;52.490;13.410;2022-08-01T06:28:12;6.27;;;5.77;;
19255;SDS011;9762;52.490;13.410;2022-08-01T06:30:38;6.77;;;6.27;;
19255;SDS011;9762;52.490;13.410;2022-08-01T06:33:03;7.70;;;6.37;;
19255;SDS011;9762;52.490;13.410;2022-08-01T06:35:29;7.40;;;5.23;;
19255;SDS011;9762;52.490;13.410;2022-08-01T06:37:55;5.97;;;5.57;;
19255;SDS011;9762;52.490;13.410;2022-08-01T06:40:22;5.30;;;4.90;;
19255;SDS011;9762;52.490;13.410;2022-08-01T06:42:48;4.77;;;4.40;;
19255;SDS011;9762;52.490;13.410;2022-08-01T06:45:14;4.37;;;3.97;;
19255;SDS011;9762;52.490;13.410;2022-08-01T06:47:40;5.30;;;3.90;;
19255;SDS011;9762;52.490;13.410;2022-08-01T06:50:07;3.50;;;3.20;;
19255;SDS011;9762;52.490;13.410;2022-08-01T06:52:34;2.70;;;2.47;;
19255;SDS011;9762;52.490;13.410;2022-08-01T06:55:00;3.30;;;3.00;;
19255;SDS011;9762;52.490;13.410;2022-08-01T06:57:26;2.83;;;2.63;;
19255;SDS011;9762;52.490;13.410;2022-08-01T06:59:52;3.23;;;2.70;;
19255;SDS011;9762;52.490;13.410;2022-08-01T07:02:18;2.70;;;2.50;;
19255;SDS011;9762;52.490;13.410;2022-08-01T07:04:44;5.10;;;2.77;;
19255;SDS011;9762;52.490;13.410;2022-08-01T07:07:10;2.83;;;2.63;;
19255;SDS011;9762;52.490;13.410;2022-08-01T07:09:36;2.67;;;2.50;;
19255;SDS011;9762;52.490;13.410;2022-08-01T07:12:02;2.60;;;2.40;;
19255;SDS011;9762;52.490;13.410;2022-08-01T07:14:28;2.77;;;2.57;;
19255;SDS011;9762;52.490;13.410;2022-08-01T07:16:54;2.93;;;2.50;;
19255;SDS011;9762;52.490;13.410;2022-08-01T07:19:20;2.13;;;2.03;;
19255;SDS011;9762;52.490;13.410;2022-08-01T07:21:45;1.93;;;1.93;;
19255;SDS011;9762;52.490;13.410;2022-08-01T07:24:12;2.63;;;2.50;;
19255;SDS011;9762;52.490;13.410;2022-08-01T07:26:39;2.10;;;2.00;;
19255;SDS011;9762;52.490;13.410;2022-08-01T07:29:09;3.03;;;2.43;;
19255;SDS011;9762;52.490;13.410;2022-08-01T07:31:35;3.73;;;2.70;;
19255;SDS011;9762;52.490;13.410;2022-08-01T07:34:00;4.37;;;2.40;;
19255;SDS011;9762;52.490;13.410;2022-08-01T07:36:26;2.70;;;2.50;;
19255;SDS011;9762;52.490;13.410;2022-08-01T07:38:52;2.40;;;2.30;;
19255;SDS011;9762;52.490;13.410;2022-08-01T07:41:17;2.63;;;2.40;;
19255;SDS011;9762;52.490;13.410;2022-08-01T07:43:43;3.17;;;2.40;;
19255;SDS011;9762;52.490;13.410;2022-08-01T07:46:08;2.73;;;2.53;;
19255;SDS011;9762;52.490;13.410;2022-08-01T07:48:34;3.67;;;2.20;;
19255;SDS011;9762;52.490;13.410;2022-08-01T07:50:59;2.80;;;2.60;;
19255;SDS011;9762;52.490;13.410;2022-08-01T07:53:25;2.37;;;2.27;;
19255;SDS011;9762;52.490;13.410;2022-08-01T07:55:51;2.20;;;2.10;;
19255;SDS011;9762;52.490;13.410;2022-08-01T07:58:16;3.60;;;2.70;;
19255;SDS011;9762;52.490;13.410;2022-08-01T08:00:42;2.60;;;2.50;;
19255;SDS011;9762;52.490;13.410;2022-08-01T08:03:08;2.77;;;2.67;;
19255;SDS011;9762;52.490;13.410;2022-08-01T08:05:33;3.10;;;2.90;;
19255;SDS011;9762;52.490;13.410;2022-08-01T08:08:05;3.40;;;2.20;;
19255;SDS011;9762;52.490;13.410;2022-08-01T08:10:32;2.57;;;2.47;;
19255;SDS011;9762;52.490;13.410;2022-08-01T08:12:58;2.90;;;2.80;;
19255;SDS011;9762;52.490;13.410;2022-08-01T08:15:24;3.00;;;2.80;;
19255;SDS011;9762;52.490;13.410;2022-08-01T08:17:49;2.90;;;2.80;;
19255;SDS011;9762;52.490;13.410;2022-08-01T08:20:15;3.33;;;3.17;;
19255;SDS011;9762;52.490;13.410;2022-08-01T08:22:40;4.00;;;3.70;;
19255;SDS011;9762;52.490;13.410;2022-08-01T08:25:07;3.90;;;3.70;;
19255;SDS011;9762;52.490;13.410;2022-08-01T08:27:33;6.03;;;3.83;;
19255;SDS011;9762;52.490;13.410;2022-08-01T08:29:59;3.90;;;3.70;;
19255;SDS011;9762;52.490;13.410;2022-08-01T08:32:25;3.93;;;3.73;;
19255;SDS011;9762;52.490;13.410;2022-08-01T08:34:50;4.53;;;3.47;;
19255;SDS011;9762;52.490;13.410;2022-08-01T08:37:16;5.20;;;3.30;;
19255;SDS011;9762;52.490;13.410;2022-08-01T08:39:42;3.60;;;3.30;;
19255;SDS011;9762;52.490;13.410;2022-08-01T08:42:09;3.33;;;3.23;;
19255;SDS011;9762;52.490;13.410;2022-08-01T08:44:36;3.80;;;3.47;;
19255;SDS011;9762;52.490;13.410;2022-08-01T08:47:03;3.83;;;3.50;;
19255;SDS011;9762;52.490;13.410;2022-08-01T08:49:31;3.83;;;3.63;;
19255;SDS011;9762;52.490;13.410;2022-08-01T08:52:00;3.73;;;3.50;;
19255;SDS011;9762;52.490;13.410;2022-08-01T08:54:26;3.70;;;3.47;;
19255;SDS011;9762;52.490;13.410;2022-08-01T08:56:53;3.57;;;3.27;;
19255;SDS011;9762;52.490;13.410;2022-08-01T08:59:20;2.70;;;2.60;;
19255;SDS011;9762;52.490;13.410;2022-08-01T09:01:47;2.73;;;2.63;;
19255;SDS011;9762;52.490;13.410;2022-08-01T09:04:13;2.50;;;2.50;;
19255;SDS011;9762;52.490;13.410;2022-08-01T09:06:38;6.17;;;2.67;;
19255;SDS011;9762;52.490;13.410;2022-08-01T09:09:05;2.40;;;2.20;;
19255;SDS011;9762;52.490;13.410;2022-08-01T09:11:31;2.00;;;1.90;;
19255;SDS011;9762;52.490;13.410;2022-08-01T09:16:41;1.60;;;1.60;;
19255;SDS011;9762;52.490;13.410;2022-08-01T09:19:12;1.50;;;1.50;;
19255;SDS011;9762;52.490;13.410;2022-08-01T09:21:55;1.50;;;1.50;;
19255;SDS011;9762;52.490;13.410;2022-08-01T09:24:21;3.90;;;1.23;;
19255;SDS011;9762;52.490;13.410;2022-08-01T09:26:46;1.73;;;1.60;;
19255;SDS011;9762;52.490;13.410;2022-08-01T09:29:21;1.40;;;1.40;;
19255;SDS011;9762;52.490;13.410;2022-08-01T09:31:54;1.53;;;1.50;;
19255;SDS011;9762;52.490;13.410;2022-08-01T09:34:25;1.47;;;1.47;;
19255;SDS011;9762;52.490;13.410;2022-08-01T09:36:54;4.50;;;1.50;;
19255;SDS011;9762;52.490;13.410;2022-08-01T09:39:25;2.33;;;1.30;;
19255;SDS011;9762;52.490;13.410;2022-08-01T09:41:59;1.97;;;1.40;;
19255;SDS011;9762;52.490;13.410;2022-08-01T09:44:36;1.87;;;1.70;;
19255;SDS011;9762;52.490;13.410;2022-08-01T09:47:03;1.97;;;1.60;;
19255;SDS011;9762;52.490;13.410;2022-08-01T09:49:30;6.67;;;1.80;;
19255;SDS011;9762;52.490;13.410;2022-08-01T09:51:57;2.07;;;1.50;;
19255;SDS011;9762;52.490;13.410;2022-08-01T09:54:32;2.57;;;1.80;;
19255;SDS011;9762;52.490;13.410;2022-08-01T09:57:14;2.40;;;2.03;;
19255;SDS011;9762;52.490;13.410;2022-08-01T09:59:46;2.93;;;1.60;;
19255;SDS011;9762;52.490;13.410;2022-08-01T10:02:26;1.90;;;1.70;;
19255;SDS011;9762;52.490;13.410;2022-08-01T10:04:52;2.40;;;1.90;;
19255;SDS011;9762;52.490;13.410;2022-08-01T10:07:18;3.17;;;2.00;;
19255;SDS011;9762;52.490;13.410;2022-08-01T10:09:45;2.27;;;1.80;;
19255;SDS011;9762;52.490;13.410;2022-08-01T10:12:12;2.50;;;1.90;;
19255;SDS011;9762;52.490;13.410;2022-08-01T10:14:40;2.00;;;1.90;;
19255;SDS011;9762;52.490;13.410;2022-08-01T10:17:08;3.50;;;1.70;;
19255;SDS011;9762;52.490;13.410;2022-08-01T10:19:36;1.67;;;1.57;;
19255;SDS011;9762;52.490;13.410;2022-08-01T10:22:03;2.23;;;1.53;;
19255;SDS011;9762;52.490;13.410;2022-08-01T10:24:34;1.53;;;1.53;;
19255;SDS011;9762;52.490;13.410;2022-08-01T10:27:03;3.03;;;1.77;;
19255;SDS011;9762;52.490;13.410;2022-08-01T10:29:46;2.17;;;1.83;;
19255;SDS011;9762;52.490;13.410;2022-08-01T10:32:12;1.40;;;1.40;;
19255;SDS011;9762;52.490;13.410;2022-08-01T10:34:38;3.75;;;1.55;;
19255;SDS011;9762;52.490;13.410;2022-08-01T10:37:05;1.60;;;1.47;;
19255;SDS011;9762;52.490;13.410;2022-08-01T10:39:32;4.45;;;1.50;;
19255;SDS011;9762;52.490;13.410;2022-08-01T10:41:58;1.70;;;1.60;;
19255;SDS011;9762;52.490;13.410;2022-08-01T10:44:24;3.03;;;1.60;;
19255;SDS011;9762;52.490;13.410;2022-08-01T10:46:52;1.13;;;1.13;;
19255;SDS011;9762;52.490;13.410;2022-08-01T10:49:25;2.40;;;1.60;;
19255;SDS011;9762;52.490;13.410;2022-08-01T10:51:53;1.40;;;1.40;;
19255;SDS011;9762;52.490;13.410;2022-08-01T10:54:20;2.70;;;1.45;;
19255;SDS011;9762;52.490;13.410;2022-08-01T10:56:50;1.60;;;1.50;;
19255;SDS011;9762;52.490;13.410;2022-08-01T10:59:24;1.40;;;1.40;;
19255;SDS011;9762;52.490;13.410;2022-08-01T11:01:55;5.60;;;1.60;;
19255;SDS011;9762;52.490;13.410;2022-08-01T11:04:41;1.30;;;1.30;;
19255;SDS011;9762;52.490;13.410;2022-08-01T11:07:13;1.48;;;1.27;;
19255;SDS011;9762;52.490;13.410;2022-08-01T11:09:44;1.48;;;1.38;;
19255;SDS011;9762;52.490;13.410;2022-08-01T11:12:14;1.10;;;1.10;;
19255;SDS011;9762;52.490;13.410;2022-08-01T11:20:13;3.22;;;1.55;;
19255;SDS011;9762;52.490;13.410;2022-08-01T11:25:25;1.10;;;1.00;;
19255;SDS011;9762;52.490;13.410;2022-08-01T11:30:41;2.75;;;0.90;;
19255;SDS011;9762;52.490;13.410;2022-08-01T11:33:09;1.88;;;1.10;;
19255;SDS011;9762;52.490;13.410;2022-08-01T11:35:36;0.90;;;0.90;;
19255;SDS011;9762;52.490;13.410;2022-08-01T11:44:03;5.20;;;1.60;;
19255;SDS011;9762;52.490;13.410;2022-08-01T11:51:58;2.35;;;1.35;;
19255;SDS011;9762;52.490;13.410;2022-08-01T11:54:35;1.27;;;1.20;;
19255;SDS011;9762;52.490;13.410;2022-08-01T11:57:04;1.90;;;1.40;;
19255;SDS011;9762;52.490;13.410;2022-08-01T11:59:35;5.85;;;1.27;;
19255;SDS011;9762;52.490;13.410;2022-08-01T12:02:17;1.40;;;1.40;;
19255;SDS011;9762;52.490;13.410;2022-08-01T12:04:54;5.28;;;1.42;;
19255;SDS011;9762;52.490;13.410;2022-08-01T12:07:25;1.20;;;1.17;;
19255;SDS011;9762;52.490;13.410;2022-08-01T12:12:26;1.25;;;1.20;;
19255;SDS011;9762;52.490;13.410;2022-08-01T12:14:53;6.70;;;1.45;;
19255;SDS011;9762;52.490;13.410;2022-08-01T12:17:26;2.30;;;1.15;;
19255;SDS011;9762;52.490;13.410;2022-08-01T12:20:22;1.63;;;0.82;;
19255;SDS011;9762;52.490;13.410;2022-08-01T12:22:52;0.95;;;0.90;;
19255;SDS011;9762;52.490;13.410;2022-08-01T12:25:21;1.13;;;1.08;;
19255;SDS011;9762;52.490;13.410;2022-08-01T12:27:48;1.83;;;1.17;;
19255;SDS011;9762;52.490;13.410;2022-08-01T12:30:16;1.00;;;0.90;;
19255;SDS011;9762;52.490;13.410;2022-08-01T12:32:43;2.47;;;0.98;;
19255;SDS011;9762;52.490;13.410;2022-08-01T12:35:11;2.00;;;0.80;;
19255;SDS011;9762;52.490;13.410;2022-08-01T12:40:36;1.48;;;1.00;;
19255;SDS011;9762;52.490;13.410;2022-08-01T12:43:07;1.90;;;1.00;;
19255;SDS011;9762;52.490;13.410;2022-08-01T12:45:37;1.02;;;0.88;;
19255;SDS011;9762;52.490;13.410;2022-08-01T12:48:09;3.35;;;0.93;;
19255;SDS011;9762;52.490;13.410;2022-08-01T12:50:40;1.52;;;0.90;;
19255;SDS011;9762;52.490;13.410;2022-08-01T12:53:09;2.63;;;1.30;;
19255;SDS011;9762;52.490;13.410;2022-08-01T12:55:45;2.05;;;1.10;;
19255;SDS011;9762;52.490;13.410;2022-08-01T12:58:12;2.28;;;1.10;;
19255;SDS011;9762;52.490;13.410;2022-08-01T13:00:40;1.00;;;1.00;;
19255;SDS011;9762;52.490;13.410;2022-08-01T13:03:09;1.65;;;1.17;;
19255;SDS011;9762;52.490;13.410;2022-08-01T13:11:02;0.90;;;0.90;;
19255;SDS011;9762;52.490;13.410;2022-08-01T13:13:45;1.20;;;1.20;;
19255;SDS011;9762;52.490;13.410;2022-08-01T13:16:15;1.77;;;1.00;;
19255;SDS011;9762;52.490;13.410;2022-08-01T13:18:48;1.33;;;1.20;;
19255;SDS011;9762;52.490;13.410;2022-08-01T13:24:01;1.33;;;1.10;;
19255;SDS011;9762;52.490;13.410;2022-08-01T13:29:17;1.10;;;1.10;;
19255;SDS011;9762;52.490;13.410;2022-08-01T13:31:44;1.60;;;1.30;;
19255;SDS011;9762;52.490;13.410;2022-08-01T13:34:10;4.18;;;1.17;;
19255;SDS011;9762;52.490;13.410;2022-08-01T13:36:36;0.93;;;0.93;;
19255;SDS011;9762;52.490;13.410;2022-08-01T13:39:03;3.97;;;1.30;;
19255;SDS011;9762;52.490;13.410;2022-08-01T13:41:47;1.15;;;1.15;;
19255;SDS011;9762;52.490;13.410;2022-08-01T13:44:13;1.20;;;1.10;;
19255;SDS011;9762;52.490;13.410;2022-08-01T13:46:39;1.75;;;1.27;;
19255;SDS011;9762;52.490;13.410;2022-08-01T13:49:06;3.78;;;1.23;;
19255;SDS011;9762;52.490;13.410;2022-08-01T13:51:33;4.22;;;0.93;;
19255;SDS011;9762;52.490;13.410;2022-08-01T13:53:59;2.72;;;1.27;;
19255;SDS011;9762;52.490;13.410;2022-08-01T13:56:24;1.65;;;1.00;;
19255;SDS011;9762;52.490;13.410;2022-08-01T13:58:52;3.35;;;1.13;;
19255;SDS011;9762;52.490;13.410;2022-08-01T14:01:18;0.95;;;0.95;;
19255;SDS011;9762;52.490;13.410;2022-08-01T14:03:44;1.45;;;0.98;;
19255;SDS011;9762;52.490;13.410;2022-08-01T14:06:09;3.05;;;1.15;;
19255;SDS011;9762;52.490;13.410;2022-08-01T14:08:35;2.78;;;1.10;;
19255;SDS011;9762;52.490;13.410;2022-08-01T14:11:01;0.80;;;0.80;;
19255;SDS011;9762;52.490;13.410;2022-08-01T14:13:27;2.67;;;1.00;;
19255;SDS011;9762;52.490;13.410;2022-08-01T14:15:52;1.27;;;0.90;;
19255;SDS011;9762;52.490;13.410;2022-08-01T14:18:18;1.20;;;1.10;;
19255;SDS011;9762;52.490;13.410;2022-08-01T14:20:44;5.07;;;1.23;;
19255;SDS011;9762;52.490;13.410;2022-08-01T14:23:10;1.20;;;1.10;;
19255;SDS011;9762;52.490;13.410;2022-08-01T14:25:39;0.90;;;0.85;;
19255;SDS011;9762;52.490;13.410;2022-08-01T14:28:06;1.60;;;0.80;;
19255;SDS011;9762;52.490;13.410;2022-08-01T14:30:32;2.92;;;0.95;;
19255;SDS011;9762;52.490;13.410;2022-08-01T14:32:58;0.70;;;0.70;;
19255;SDS011;9762;52.490;13.410;2022-08-01T14:35:24;0.90;;;0.90;;
19255;SDS011;9762;52.490;13.410;2022-08-01T14:37:50;1.05;;;0.77;;
19255;SDS011;9762;52.490;13.410;2022-08-01T14:40:16;0.85;;;0.85;;
19255;SDS011;9762;52.490;13.410;2022-08-01T14:42:41;1.85;;;0.85;;
19255;SDS011;9762;52.490;13.410;2022-08-01T14:45:09;0.80;;;0.80;;
19255;SDS011;9762;52.490;13.410;2022-08-01T14:47:36;0.80;;;0.80;;
19255;SDS011;9762;52.490;13.410;2022-08-01T14:50:04;1.75;;;1.00;;
19255;SDS011;9762;52.490;13.410;2022-08-01T14:52:31;2.05;;;0.90;;
19255;SDS011;9762;52.490;13.410;2022-08-01T14:54:57;0.88;;;0.80;;
19255;SDS011;9762;52.490;13.410;2022-08-01T14:57:23;0.70;;;0.70;;
19255;SDS011;9762;52.490;13.410;2022-08-01T14:59:48;1.45;;;0.77;;
19255;SDS011;9762;52.490;13.410;2022-08-01T15:02:14;0.90;;;0.90;;
19255;SDS011;9762;52.490;13.410;2022-08-01T15:04:42;1.30;;;0.90;;
19255;SDS011;9762;52.490;13.410;2022-08-01T15:07:08;0.70;;;0.70;;
19255;SDS011;9762;52.490;13.410;2022-08-01T15:09:33;1.00;;;1.00;;
19255;SDS011;9762;52.490;13.410;2022-08-01T15:11:59;3.85;;;1.13;;
19255;SDS011;9762;52.490;13.410;2022-08-01T15:14:25;0.93;;;0.93;;
19255;SDS011;9762;52.490;13.410;2022-08-01T15:17:09;1.23;;;1.20;;
19255;SDS011;9762;52.490;13.410;2022-08-01T15:19:34;2.42;;;1.00;;
19255;SDS011;9762;52.490;13.410;2022-08-01T15:22:00;1.30;;;1.30;;
19255;SDS011;9762;52.490;13.410;2022-08-01T15:24:25;1.83;;;1.38;;
19255;SDS011;9762;52.490;13.410;2022-08-01T15:26:51;3.70;;;1.30;;
19255;SDS011;9762;52.490;13.410;2022-08-01T15:29:16;3.15;;;1.60;;
19255;SDS011;9762;52.490;13.410;2022-08-01T15:31:42;2.25;;;1.27;;
19255;SDS011;9762;52.490;13.410;2022-08-01T15:34:08;4.28;;;1.27;;
19255;SDS011;9762;52.490;13.410;2022-08-01T15:36:34;3.97;;;1.27;;
19255;SDS011;9762;52.490;13.410;2022-08-01T15:38:59;1.20;;;1.20;;
19255;SDS011;9762;52.490;13.410;2022-08-01T15:41:25;1.15;;;1.10;;
19255;SDS011;9762;52.490;13.410;2022-08-01T15:43:51;1.98;;;0.90;;